Time;durP1;ratioP1;P1;durP2;ratioP2;P2;SDS_P1;SDS_P2;PMS_P1;PMS_P2;Temp;Humidity;BMP_temperature;BMP_pressure;BME280_temperature;BME280_humidity;BME280_pressure;Samples;Min_cycle;Max_cycle;Signal;HPM_P1;HPM_P2
2024/03/12 00:01:50;;;;;;;1.6;1.1;;;;;;;;;;;;;
2024/03/12 00:04:16;;;;;;;1.2;1.1;;;;;;;;;;;;;
2024/03/12 00:06:42;;;;;;;0.9;0.9;;;;;;;;;;;;;
2024/03/12 00:09:09;;;;;;;1.4;0.9;;;;;;;;;;;;;
2024/03/12 00:11:31;;;;;;;1;0.9;;;;;;;;;;;;;
2024/03/12 00:13:56;;;;;;;1.2;1.1;;;;;;;;;;;;;
2024/03/12 00:16:21;;;;;;;1.3;1.2;;;;;;;;;;;;;
2024/03/12 00:18:52;;;;;;;1.3;1.2;;;;;;;;;;;;;
2024/03/12 00:21:12;;;;;;;3.4;1.2;;;;;;;;;;;;;
2024/03/12 00:23:36;;;;;;;1.2;1.1;;;;;;;;;;;;;
2024/03/12 00:26:03;;;;;;;1.1;0.9;;;;;;;;;;;;;
2024/03/12 00:28:27;;;;;;;0.9;0.9;;;;;;;;;;;;;
2024/03/12 00:30:53;;;;;;;0.9;0.9;;;;;;;;;;;;;
2024/03/12 00:33:18;;;;;;;1.2;0.9;;;;;;;;;;;;;
2024/03/12 00:35:45;;;;;;;0.9;0.8;;;;;;;;;;;;;
2024/03/12 00:38:08;;;;;;;1.1;1;;;;;;;;;;;;;
2024/03/12 00:40:36;;;;;;;1.1;1;;;;;;;;;;;;;
2024/03/12 00:42:59;;;;;;;1.4;0.9;;;;;;;;;;;;;
2024/03/12 00:45:25;;;;;;;1.4;1.1;;;;;;;;;;;;;
2024/03/12 00:47:48;;;;;;;1.3;1;;;;;;;;;;;;;
2024/03/12 00:50:14;;;;;;;0.9;0.9;;;;;;;;;;;;;
2024/03/12 00:52:38;;;;;;;1.1;1;;;;;;;;;;;;;
2024/03/12 00:55:04;;;;;;;1.1;1;;;;;;;;;;;;;
2024/03/12 00:57:30;;;;;;;1.3;1.2;;;;;;;;;;;;;
2024/03/12 00:59:54;;;;;;;1.2;1.1;;;;;;;;;;;;;
2024/03/12 01:02:19;;;;;;;1.4;1.2;;;;;;;;;;;;;
2024/03/12 01:04:45;;;;;;;2;1;;;;;;;;;;;;;
2024/03/12 01:07:10;;;;;;;1;1;;;;;;;;;;;;;
2024/03/12 01:09:39;;;;;;;0.9;0.9;;;;;;;;;;;;;
2024/03/12 01:11:59;;;;;;;2.4;1.2;;;;;;;;;;;;;
2024/03/12 01:14:24;;;;;;;1.1;1;;;;;;;;;;;;;
2024/03/12 01:16:49;;;;;;;1.6;0.9;;;;;;;;;;;;;
2024/03/12 01:19:14;;;;;;;1;1;;;;;;;;;;;;;
2024/03/12 01:21:40;;;;;;;2.4;1.1;;;;;;;;;;;;;
2024/03/12 01:24:04;;;;;;;1.2;0.9;;;;;;;;;;;;;
2024/03/12 01:26:30;;;;;;;2.4;2;;;;;;;;;;;;;
2024/03/12 01:28:55;;;;;;;1;1;;;;;;;;;;;;;
2024/03/12 01:31:21;;;;;;;0.9;0.9;;;;;;;;;;;;;
2024/03/12 01:33:46;;;;;;;1.2;1.1;;;;;;;;;;;;;
2024/03/12 01:36:20;;;;;;;1;1;;;;;;;;;;;;;
2024/03/12 01:38:35;;;;;;;1.2;1.1;;;;;;;;;;;;;
2024/03/12 01:41:01;;;;;;;2.1;1.2;;;;;;;;;;;;;
2024/03/12 01:43:27;;;;;;;1.3;1.2;;;;;;;;;;;;;
2024/03/12 01:45:52;;;;;;;2.2;1.2;;;;;;;;;;;;;
2024/03/12 01:48:16;;;;;;;3.6;2;;;;;;;;;;;;;
2024/03/12 01:50:41;;;;;;;2.8;1.8;;;;;;;;;;;;;
2024/03/12 01:53:06;;;;;;;1.8;1.4;;;;;;;;;;;;;
2024/03/12 01:55:31;;;;;;;2.2;1.4;;;;;;;;;;;;;
2024/03/12 01:57:56;;;;;;;1.7;1.3;;;;;;;;;;;;;
2024/03/12 02:00:22;;;;;;;1.3;1.2;;;;;;;;;;;;;
2024/03/12 02:02:47;;;;;;;1.6;1.1;;;;;;;;;;;;;
2024/03/12 02:05:12;;;;;;;1.6;1.3;;;;;;;;;;;;;
2024/03/12 02:07:37;;;;;;;1.2;1;;;;;;;;;;;;;
2024/03/12 02:10:03;;;;;;;1.3;1.1;;;;;;;;;;;;;
2024/03/12 02:12:26;;;;;;;1.6;1.1;;;;;;;;;;;;;
2024/03/12 02:14:56;;;;;;;1.3;1.2;;;;;;;;;;;;;
2024/03/12 02:17:21;;;;;;;1.3;1.2;;;;;;;;;;;;;
2024/03/12 02:19:46;;;;;;;1.4;1.3;;;;;;;;;;;;;
2024/03/12 02:22:12;;;;;;;2.2;1.5;;;;;;;;;;;;;
2024/03/12 02:24:36;;;;;;;2.4;1.2;;;;;;;;;;;;;
2024/03/12 02:27:01;;;;;;;1.2;1.1;;;;;;;;;;;;;
2024/03/12 02:29:27;;;;;;;2.2;1.2;;;;;;;;;;;;;
2024/03/12 02:31:53;;;;;;;1.4;1.3;;;;;;;;;;;;;
2024/03/12 02:34:17;;;;;;;3.5;1.3;;;;;;;;;;;;;
2024/03/12 02:36:42;;;;;;;1.5;1.4;;;;;;;;;;;;;
2024/03/12 02:39:08;;;;;;;1.5;1.3;;;;;;;;;;;;;
2024/03/12 02:41:33;;;;;;;1.5;1.4;;;;;;;;;;;;;
2024/03/12 02:43:58;;;;;;;1.4;1.3;;;;;;;;;;;;;
2024/03/12 02:46:23;;;;;;;1.4;1.3;;;;;;;;;;;;;
2024/03/12 02:48:51;;;;;;;1.3;1.2;;;;;;;;;;;;;
2024/03/12 02:51:13;;;;;;;1.1;1;;;;;;;;;;;;;
2024/03/12 02:53:38;;;;;;;1.3;1.2;;;;;;;;;;;;;
2024/03/12 02:56:03;;;;;;;1.1;1.1;;;;;;;;;;;;;
2024/03/12 02:58:29;;;;;;;1.5;1.4;;;;;;;;;;;;;
2024/03/12 03:00:53;;;;;;;1.3;1.2;;;;;;;;;;;;;
2024/03/12 03:03:19;;;;;;;1.7;1.5;;;;;;;;;;;;;
2024/03/12 03:05:44;;;;;;;1.4;1.3;;;;;;;;;;;;;
2024/03/12 03:08:10;;;;;;;1.5;1.3;;;;;;;;;;;;;
2024/03/12 03:10:34;;;;;;;1.5;1.4;;;;;;;;;;;;;
2024/03/12 03:12:59;;;;;;;1.7;1.5;;;;;;;;;;;;;
2024/03/12 03:15:24;;;;;;;1.7;1.2;;;;;;;;;;;;;
2024/03/12 03:17:49;;;;;;;2.8;1.3;;;;;;;;;;;;;
2024/03/12 03:20:15;;;;;;;2.8;1.4;;;;;;;;;;;;;
2024/03/12 03:22:39;;;;;;;1.8;1.2;;;;;;;;;;;;;
2024/03/12 03:25:05;;;;;;;1.4;1.3;;;;;;;;;;;;;
2024/03/12 03:27:30;;;;;;;1.3;1.2;;;;;;;;;;;;;
2024/03/12 03:29:56;;;;;;;2.5;1.4;;;;;;;;;;;;;
2024/03/12 03:32:23;;;;;;;2.1;1.4;;;;;;;;;;;;;
2024/03/12 03:34:45;;;;;;;2;1.3;;;;;;;;;;;;;
2024/03/12 03:37:11;;;;;;;1.2;1.1;;;;;;;;;;;;;
2024/03/12 03:39:37;;;;;;;1.9;1.4;;;;;;;;;;;;;
2024/03/12 03:42:02;;;;;;;1.5;1.4;;;;;;;;;;;;;
2024/03/12 03:44:28;;;;;;;1.3;1.2;;;;;;;;;;;;;
2024/03/12 03:46:51;;;;;;;1.6;1.5;;;;;;;;;;;;;
2024/03/12 03:49:16;;;;;;;1.5;1.3;;;;;;;;;;;;;
2024/03/12 03:51:41;;;;;;;1.5;1.4;;;;;;;;;;;;;
2024/03/12 03:54:07;;;;;;;2.6;1.5;;;;;;;;;;;;;
2024/03/12 03:56:32;;;;;;;1.7;1.4;;;;;;;;;;;;;
2024/03/12 03:58:58;;;;;;;2.2;1.5;;;;;;;;;;;;;
2024/03/12 04:02:29;;;;;;;1.6;1.5;;;;;;;;;;;;;
2024/03/12 04:04:54;;;;;;;1.5;1.3;;;;;;;;;;;;;
2024/03/12 04:07:19;;;;;;;1.8;1.5;;;;;;;;;;;;;
2024/03/12 04:09:44;;;;;;;1.7;1.5;;;;;;;;;;;;;
2024/03/12 04:12:09;;;;;;;2.3;1.7;;;;;;;;;;;;;
2024/03/12 04:14:35;;;;;;;1.7;1.5;;;;;;;;;;;;;
2024/03/12 04:17:01;;;;;;;3.7;2.1;;;;;;;;;;;;;
2024/03/12 04:19:24;;;;;;;3.6;2.7;;;;;;;;;;;;;
2024/03/12 04:21:50;;;;;;;2.5;2.1;;;;;;;;;;;;;
2024/03/12 04:24:16;;;;;;;2.1;1.6;;;;;;;;;;;;;
2024/03/12 04:26:40;;;;;;;2.4;1.6;;;;;;;;;;;;;
2024/03/12 04:29:05;;;;;;;1.6;1.5;;;;;;;;;;;;;
2024/03/12 04:31:31;;;;;;;1.7;1.5;;;;;;;;;;;;;
2024/03/12 04:33:55;;;;;;;1.5;1.3;;;;;;;;;;;;;
2024/03/12 04:36:22;;;;;;;1.6;1.5;;;;;;;;;;;;;
2024/03/12 04:38:46;;;;;;;2.2;1.8;;;;;;;;;;;;;
2024/03/12 04:41:11;;;;;;;1.4;1.3;;;;;;;;;;;;;
2024/03/12 04:43:36;;;;;;;1.7;1.5;;;;;;;;;;;;;
2024/03/12 04:46:01;;;;;;;1.6;1.5;;;;;;;;;;;;;
2024/03/12 04:48:26;;;;;;;2.4;1.5;;;;;;;;;;;;;
2024/03/12 04:50:51;;;;;;;2.7;1.9;;;;;;;;;;;;;
2024/03/12 04:53:17;;;;;;;2.5;1.6;;;;;;;;;;;;;
2024/03/12 04:55:42;;;;;;;2.2;1.6;;;;;;;;;;;;;
2024/03/12 04:58:06;;;;;;;2.2;1.7;;;;;;;;;;;;;
2024/03/12 05:00:32;;;;;;;1.8;1.7;;;;;;;;;;;;;
2024/03/12 05:02:57;;;;;;;2.2;1.8;;;;;;;;;;;;;
2024/03/12 05:05:23;;;;;;;2.1;1.5;;;;;;;;;;;;;
2024/03/12 05:07:47;;;;;;;1.7;1.6;;;;;;;;;;;;;
2024/03/12 05:10:12;;;;;;;1.7;1.6;;;;;;;;;;;;;
2024/03/12 05:12:37;;;;;;;2.8;1.8;;;;;;;;;;;;;
2024/03/12 05:15:03;;;;;;;7.5;3.6;;;;;;;;;;;;;
2024/03/12 05:17:27;;;;;;;3.8;2.6;;;;;;;;;;;;;
2024/03/12 05:19:53;;;;;;;3.4;1.9;;;;;;;;;;;;;
2024/03/12 05:22:18;;;;;;;2.2;1.7;;;;;;;;;;;;;
2024/03/12 05:24:43;;;;;;;2;1.7;;;;;;;;;;;;;
2024/03/12 05:27:08;;;;;;;3.1;1.8;;;;;;;;;;;;;
2024/03/12 05:29:42;;;;;;;2.6;2.1;;;;;;;;;;;;;
2024/03/12 05:32:05;;;;;;;3;2.3;;;;;;;;;;;;;
2024/03/12 05:34:37;;;;;;;9.5;5;;;;;;;;;;;;;
2024/03/12 05:36:51;;;;;;;10;4.9;;;;;;;;;;;;;
2024/03/12 05:39:19;;;;;;;9.3;6.1;;;;;;;;;;;;;
2024/03/12 05:41:49;;;;;;;9.9;5.6;;;;;;;;;;;;;
2024/03/12 05:48:53;;;;;;;4.7;2.7;;;;;;;;;;;;;
2024/03/12 05:51:18;;;;;;;3.3;2.2;;;;;;;;;;;;;
2024/03/12 05:53:44;;;;;;;2.3;1.9;;;;;;;;;;;;;
2024/03/12 05:56:09;;;;;;;2.2;1.8;;;;;;;;;;;;;
2024/03/12 05:58:34;;;;;;;1.8;1.6;;;;;;;;;;;;;
2024/03/12 06:00:59;;;;;;;3;1.8;;;;;;;;;;;;;
2024/03/12 06:03:24;;;;;;;1.7;1.6;;;;;;;;;;;;;
2024/03/12 06:05:49;;;;;;;1.8;1.6;;;;;;;;;;;;;
2024/03/12 06:08:14;;;;;;;2;1.8;;;;;;;;;;;;;
2024/03/12 06:10:39;;;;;;;1.8;1.7;;;;;;;;;;;;;
2024/03/12 06:13:04;;;;;;;2.6;1.6;;;;;;;;;;;;;
2024/03/12 06:15:29;;;;;;;1.9;1.7;;;;;;;;;;;;;
2024/03/12 06:17:54;;;;;;;2.4;1.7;;;;;;;;;;;;;
2024/03/12 06:20:20;;;;;;;2.6;1.6;;;;;;;;;;;;;
2024/03/12 06:22:45;;;;;;;1.6;1.5;;;;;;;;;;;;;
2024/03/12 06:25:10;;;;;;;1.7;1.6;;;;;;;;;;;;;
2024/03/12 06:27:35;;;;;;;2.9;2;;;;;;;;;;;;;
2024/03/12 06:30:00;;;;;;;1.9;1.7;;;;;;;;;;;;;
2024/03/12 06:32:31;;;;;;;2.4;1.7;;;;;;;;;;;;;
2024/03/12 06:34:50;;;;;;;2.8;2.2;;;;;;;;;;;;;
2024/03/12 06:37:15;;;;;;;2.5;2;;;;;;;;;;;;;
2024/03/12 06:39:41;;;;;;;3.2;2.1;;;;;;;;;;;;;
2024/03/12 06:42:07;;;;;;;2.3;2.1;;;;;;;;;;;;;
2024/03/12 06:44:31;;;;;;;2.6;2.3;;;;;;;;;;;;;
2024/03/12 06:46:56;;;;;;;2.1;1.9;;;;;;;;;;;;;
2024/03/12 06:49:22;;;;;;;2.9;2.2;;;;;;;;;;;;;
2024/03/12 06:51:47;;;;;;;16.4;4.9;;;;;;;;;;;;;
2024/03/12 06:54:11;;;;;;;4.9;2.6;;;;;;;;;;;;;
2024/03/12 06:56:42;;;;;;;2.6;2.2;;;;;;;;;;;;;
2024/03/12 06:59:01;;;;;;;5.2;2.4;;;;;;;;;;;;;
2024/03/12 07:01:26;;;;;;;3.3;2.3;;;;;;;;;;;;;
2024/03/12 07:03:51;;;;;;;2.5;1.9;;;;;;;;;;;;;
2024/03/12 07:06:16;;;;;;;2;1.8;;;;;;;;;;;;;
2024/03/12 07:08:43;;;;;;;1.9;1.7;;;;;;;;;;;;;
2024/03/12 07:11:07;;;;;;;1.6;1.5;;;;;;;;;;;;;
2024/03/12 07:13:32;;;;;;;3.5;2;;;;;;;;;;;;;
2024/03/12 07:15:56;;;;;;;2.3;2.1;;;;;;;;;;;;;
2024/03/12 07:18:23;;;;;;;2.7;2.4;;;;;;;;;;;;;
2024/03/12 07:20:53;;;;;;;3.9;2.5;;;;;;;;;;;;;
2024/03/12 07:23:13;;;;;;;3.4;2.5;;;;;;;;;;;;;
2024/03/12 07:25:37;;;;;;;2.3;2.1;;;;;;;;;;;;;
2024/03/12 07:28:05;;;;;;;2.4;2.2;;;;;;;;;;;;;
2024/03/12 07:30:27;;;;;;;3.8;2.2;;;;;;;;;;;;;
2024/03/12 07:32:52;;;;;;;3.4;2.2;;;;;;;;;;;;;
2024/03/12 07:35:18;;;;;;;3.2;2.3;;;;;;;;;;;;;
2024/03/12 07:37:42;;;;;;;3.2;2.6;;;;;;;;;;;;;
2024/03/12 07:40:09;;;;;;;3.2;2.3;;;;;;;;;;;;;
2024/03/12 07:42:32;;;;;;;2.2;1.9;;;;;;;;;;;;;
2024/03/12 07:44:58;;;;;;;2.8;2.2;;;;;;;;;;;;;
2024/03/12 07:47:24;;;;;;;3.3;2.4;;;;;;;;;;;;;
2024/03/12 07:49:48;;;;;;;3.4;2.5;;;;;;;;;;;;;
2024/03/12 07:52:13;;;;;;;4.5;2.3;;;;;;;;;;;;;
2024/03/12 07:54:38;;;;;;;4.4;2.8;;;;;;;;;;;;;
2024/03/12 07:57:04;;;;;;;2.6;2.3;;;;;;;;;;;;;
2024/03/12 07:59:30;;;;;;;2.7;2.1;;;;;;;;;;;;;
2024/03/12 08:01:57;;;;;;;2.8;2.3;;;;;;;;;;;;;
2024/03/12 08:04:19;;;;;;;2.2;2;;;;;;;;;;;;;
2024/03/12 08:06:45;;;;;;;2.2;2;;;;;;;;;;;;;
2024/03/12 08:09:09;;;;;;;2.2;2;;;;;;;;;;;;;
2024/03/12 08:11:34;;;;;;;2.2;2;;;;;;;;;;;;;
2024/03/12 08:13:59;;;;;;;2.6;2.1;;;;;;;;;;;;;
2024/03/12 08:16:24;;;;;;;1.7;1.6;;;;;;;;;;;;;
2024/03/12 08:18:50;;;;;;;1.7;1.6;;;;;;;;;;;;;
2024/03/12 08:21:16;;;;;;;2.5;1.6;;;;;;;;;;;;;
2024/03/12 08:23:41;;;;;;;2.4;1.9;;;;;;;;;;;;;
2024/03/12 08:26:07;;;;;;;2.2;2;;;;;;;;;;;;;
2024/03/12 08:28:31;;;;;;;2.2;1.9;;;;;;;;;;;;;
2024/03/12 08:30:56;;;;;;;2.3;1.6;;;;;;;;;;;;;
2024/03/12 08:33:20;;;;;;;1.7;1.6;;;;;;;;;;;;;
2024/03/12 08:35:46;;;;;;;1.7;1.6;;;;;;;;;;;;;
2024/03/12 08:38:11;;;;;;;2.2;1.6;;;;;;;;;;;;;
2024/03/12 08:40:36;;;;;;;2;1.7;;;;;;;;;;;;;
2024/03/12 08:43:01;;;;;;;2;1.8;;;;;;;;;;;;;
2024/03/12 08:45:27;;;;;;;2.2;2;;;;;;;;;;;;;
2024/03/12 08:47:52;;;;;;;2.1;1.9;;;;;;;;;;;;;
2024/03/12 08:50:17;;;;;;;4.1;2;;;;;;;;;;;;;
2024/03/12 08:52:42;;;;;;;2.6;1.9;;;;;;;;;;;;;
2024/03/12 08:55:08;;;;;;;2.2;2;;;;;;;;;;;;;
2024/03/12 08:57:32;;;;;;;2.1;1.8;;;;;;;;;;;;;
2024/03/12 08:59:57;;;;;;;1.7;1.6;;;;;;;;;;;;;
2024/03/12 09:02:22;;;;;;;2;1.6;;;;;;;;;;;;;
2024/03/12 09:04:47;;;;;;;1.5;1.4;;;;;;;;;;;;;
2024/03/12 09:07:13;;;;;;;1.4;1.3;;;;;;;;;;;;;
2024/03/12 09:09:37;;;;;;;1.3;1.2;;;;;;;;;;;;;
2024/03/12 09:12:02;;;;;;;1.6;1.5;;;;;;;;;;;;;
2024/03/12 09:14:27;;;;;;;1.4;1.3;;;;;;;;;;;;;
2024/03/12 09:16:52;;;;;;;1.5;1.2;;;;;;;;;;;;;
2024/03/12 09:19:21;;;;;;;1.1;1.1;;;;;;;;;;;;;
2024/03/12 09:21:43;;;;;;;2.2;1.4;;;;;;;;;;;;;
2024/03/12 09:24:09;;;;;;;2;1.7;;;;;;;;;;;;;
2024/03/12 09:26:33;;;;;;;4;1.7;;;;;;;;;;;;;
2024/03/12 09:28:59;;;;;;;2.1;1.2;;;;;;;;;;;;;
2024/03/12 09:31:23;;;;;;;1.6;1.1;;;;;;;;;;;;;
2024/03/12 09:33:48;;;;;;;1.8;1.3;;;;;;;;;;;;;
2024/03/12 09:36:14;;;;;;;2;1.2;;;;;;;;;;;;;
2024/03/12 09:38:39;;;;;;;2;1.4;;;;;;;;;;;;;
2024/03/12 09:41:03;;;;;;;1.6;1.2;;;;;;;;;;;;;
2024/03/12 09:43:28;;;;;;;1.9;1.2;;;;;;;;;;;;;
2024/03/12 09:45:54;;;;;;;3.2;1.3;;;;;;;;;;;;;
2024/03/12 09:48:18;;;;;;;1.9;1.5;;;;;;;;;;;;;
2024/03/12 09:50:43;;;;;;;2.9;1.5;;;;;;;;;;;;;
2024/03/12 09:53:09;;;;;;;2.9;1.3;;;;;;;;;;;;;
2024/03/12 09:55:34;;;;;;;2.1;1.6;;;;;;;;;;;;;
2024/03/12 09:57:59;;;;;;;1.4;1.3;;;;;;;;;;;;;
2024/03/12 10:00:27;;;;;;;1.4;1.3;;;;;;;;;;;;;
2024/03/12 10:02:50;;;;;;;2.3;1.8;;;;;;;;;;;;;
2024/03/12 10:05:15;;;;;;;1.6;1.3;;;;;;;;;;;;;
2024/03/12 10:07:39;;;;;;;2.1;1.2;;;;;;;;;;;;;
2024/03/12 10:10:06;;;;;;;1.9;1.6;;;;;;;;;;;;;
2024/03/12 10:12:30;;;;;;;1.2;1.1;;;;;;;;;;;;;
2024/03/12 10:14:56;;;;;;;2.5;1.7;;;;;;;;;;;;;
2024/03/12 10:17:20;;;;;;;2.8;1.7;;;;;;;;;;;;;
2024/03/12 10:19:47;;;;;;;1.8;1.3;;;;;;;;;;;;;
2024/03/12 10:22:11;;;;;;;3.3;1.5;;;;;;;;;;;;;
2024/03/12 10:24:36;;;;;;;1.8;1.2;;;;;;;;;;;;;
2024/03/12 10:27:00;;;;;;;2.8;1.5;;;;;;;;;;;;;
2024/03/12 10:29:25;;;;;;;1.7;1.4;;;;;;;;;;;;;
2024/03/12 10:31:51;;;;;;;4.4;2;;;;;;;;;;;;;
2024/03/12 10:34:17;;;;;;;1.9;1.6;;;;;;;;;;;;;
2024/03/12 10:36:42;;;;;;;1.8;1.6;;;;;;;;;;;;;
2024/03/12 10:39:12;;;;;;;2.8;1.5;;;;;;;;;;;;;
2024/03/12 10:41:34;;;;;;;1.9;1.4;;;;;;;;;;;;;
2024/03/12 10:43:56;;;;;;;1.4;1.3;;;;;;;;;;;;;
2024/03/12 10:46:21;;;;;;;2.4;1.4;;;;;;;;;;;;;
2024/03/12 10:48:47;;;;;;;2;1.7;;;;;;;;;;;;;
2024/03/12 10:51:13;;;;;;;3.1;2.4;;;;;;;;;;;;;
2024/03/12 10:53:37;;;;;;;2.8;1.8;;;;;;;;;;;;;
2024/03/12 10:56:02;;;;;;;1.5;1.4;;;;;;;;;;;;;
2024/03/12 10:58:28;;;;;;;2.3;1.4;;;;;;;;;;;;;
2024/03/12 11:00:52;;;;;;;2;1.2;;;;;;;;;;;;;
2024/03/12 11:03:23;;;;;;;1.5;1.1;;;;;;;;;;;;;
2024/03/12 11:05:42;;;;;;;1.5;1;;;;;;;;;;;;;
2024/03/12 11:08:09;;;;;;;2.1;1.4;;;;;;;;;;;;;
2024/03/12 11:10:33;;;;;;;1.5;1.2;;;;;;;;;;;;;
2024/03/12 11:12:59;;;;;;;1.6;1.1;;;;;;;;;;;;;
2024/03/12 11:15:23;;;;;;;2.6;1.6;;;;;;;;;;;;;
2024/03/12 11:17:48;;;;;;;1.6;1.4;;;;;;;;;;;;;
2024/03/12 11:20:14;;;;;;;3;1.8;;;;;;;;;;;;;
2024/03/12 11:22:39;;;;;;;2.3;1.6;;;;;;;;;;;;;
2024/03/12 11:25:04;;;;;;;2.5;1.7;;;;;;;;;;;;;
2024/03/12 11:27:28;;;;;;;2.4;1.7;;;;;;;;;;;;;
2024/03/12 11:29:53;;;;;;;1.8;1.6;;;;;;;;;;;;;
2024/03/12 11:32:18;;;;;;;2;1.5;;;;;;;;;;;;;
2024/03/12 11:34:43;;;;;;;2.5;1.7;;;;;;;;;;;;;
2024/03/12 11:37:09;;;;;;;2.3;1.1;;;;;;;;;;;;;
2024/03/12 11:39:34;;;;;;;2.4;1.5;;;;;;;;;;;;;
2024/03/12 11:41:59;;;;;;;1.7;1.3;;;;;;;;;;;;;
2024/03/12 11:44:24;;;;;;;1.9;1.2;;;;;;;;;;;;;
2024/03/12 11:46:51;;;;;;;1.2;0.9;;;;;;;;;;;;;
2024/03/12 11:49:18;;;;;;;1.2;0.8;;;;;;;;;;;;;
2024/03/12 11:51:39;;;;;;;1.1;1;;;;;;;;;;;;;
2024/03/12 11:54:05;;;;;;;1.4;0.9;;;;;;;;;;;;;
2024/03/12 11:56:30;;;;;;;0.6;0.6;;;;;;;;;;;;;
2024/03/12 11:58:57;;;;;;;0.9;0.7;;;;;;;;;;;;;
2024/03/12 12:01:20;;;;;;;1.2;0.9;;;;;;;;;;;;;
2024/03/12 12:03:45;;;;;;;1.1;1;;;;;;;;;;;;;
2024/03/12 12:06:11;;;;;;;1.4;0.9;;;;;;;;;;;;;
2024/03/12 12:08:35;;;;;;;1.8;0.8;;;;;;;;;;;;;
2024/03/12 12:11:01;;;;;;;1.3;0.8;;;;;;;;;;;;;
2024/03/12 12:13:25;;;;;;;0.8;0.7;;;;;;;;;;;;;
2024/03/12 12:15:50;;;;;;;1.2;0.8;;;;;;;;;;;;;
2024/03/12 12:18:15;;;;;;;0.7;0.6;;;;;;;;;;;;;
2024/03/12 12:20:42;;;;;;;1.3;0.7;;;;;;;;;;;;;
2024/03/12 12:23:08;;;;;;;1.5;0.8;;;;;;;;;;;;;
2024/03/12 12:25:34;;;;;;;0.8;0.7;;;;;;;;;;;;;
2024/03/12 12:27:59;;;;;;;0.9;0.8;;;;;;;;;;;;;
2024/03/12 12:30:23;;;;;;;0.8;0.8;;;;;;;;;;;;;
2024/03/12 12:32:48;;;;;;;2.1;1.1;;;;;;;;;;;;;
2024/03/12 12:35:13;;;;;;;0.9;0.8;;;;;;;;;;;;;
2024/03/12 12:37:38;;;;;;;1.7;0.8;;;;;;;;;;;;;
2024/03/12 12:40:07;;;;;;;0.8;0.8;;;;;;;;;;;;;
2024/03/12 12:42:29;;;;;;;1.6;1;;;;;;;;;;;;;
2024/03/12 12:44:55;;;;;;;2.1;1;;;;;;;;;;;;;
2024/03/12 12:47:21;;;;;;;1;0.9;;;;;;;;;;;;;
2024/03/12 12:49:46;;;;;;;1.3;0.8;;;;;;;;;;;;;
2024/03/12 12:52:09;;;;;;;0.8;0.8;;;;;;;;;;;;;
2024/03/12 12:54:37;;;;;;;0.7;0.7;;;;;;;;;;;;;
2024/03/12 12:56:59;;;;;;;1.2;0.8;;;;;;;;;;;;;
2024/03/12 12:59:25;;;;;;;1.2;0.9;;;;;;;;;;;;;
2024/03/12 13:01:50;;;;;;;1.6;0.9;;;;;;;;;;;;;
2024/03/12 13:04:15;;;;;;;0.9;0.9;;;;;;;;;;;;;
2024/03/12 13:06:41;;;;;;;0.8;0.8;;;;;;;;;;;;;
2024/03/12 13:09:05;;;;;;;1.2;1.1;;;;;;;;;;;;;
2024/03/12 13:11:32;;;;;;;0.7;0.7;;;;;;;;;;;;;
2024/03/12 13:13:56;;;;;;;0.6;0.5;;;;;;;;;;;;;
2024/03/12 13:16:22;;;;;;;1.1;0.7;;;;;;;;;;;;;
2024/03/12 13:18:46;;;;;;;0.4;0.4;;;;;;;;;;;;;
2024/03/12 13:21:12;;;;;;;1.6;1.3;;;;;;;;;;;;;
2024/03/12 13:23:37;;;;;;;4.2;2.4;;;;;;;;;;;;;
2024/03/12 13:26:02;;;;;;;0.6;0.6;;;;;;;;;;;;;
2024/03/12 13:28:26;;;;;;;0.6;0.6;;;;;;;;;;;;;
2024/03/12 13:30:53;;;;;;;0.7;0.7;;;;;;;;;;;;;
2024/03/12 13:33:17;;;;;;;0.5;0.5;;;;;;;;;;;;;
2024/03/12 13:35:43;;;;;;;0.7;0.6;;;;;;;;;;;;;
2024/03/12 13:38:08;;;;;;;0.5;0.5;;;;;;;;;;;;;
2024/03/12 13:40:33;;;;;;;1.1;0.8;;;;;;;;;;;;;
2024/03/12 13:42:58;;;;;;;0.6;0.6;;;;;;;;;;;;;
2024/03/12 13:45:23;;;;;;;0.5;0.5;;;;;;;;;;;;;
2024/03/12 13:47:48;;;;;;;0.8;0.8;;;;;;;;;;;;;
2024/03/12 13:50:13;;;;;;;0.7;0.7;;;;;;;;;;;;;
2024/03/12 13:52:38;;;;;;;0.5;0.5;;;;;;;;;;;;;
2024/03/12 13:55:04;;;;;;;0.7;0.6;;;;;;;;;;;;;
2024/03/12 13:57:28;;;;;;;0.6;0.6;;;;;;;;;;;;;
2024/03/12 13:59:53;;;;;;;1.5;0.8;;;;;;;;;;;;;
2024/03/12 14:02:20;;;;;;;0.8;0.8;;;;;;;;;;;;;
2024/03/12 14:04:44;;;;;;;1.1;1;;;;;;;;;;;;;
2024/03/12 14:07:09;;;;;;;1.4;1.3;;;;;;;;;;;;;
2024/03/12 14:09:34;;;;;;;1.4;1.3;;;;;;;;;;;;;
2024/03/12 14:12:01;;;;;;;0.7;0.7;;;;;;;;;;;;;
2024/03/12 14:14:24;;;;;;;0.7;0.7;;;;;;;;;;;;;
2024/03/12 14:16:51;;;;;;;1.5;1.2;;;;;;;;;;;;;
2024/03/12 14:19:15;;;;;;;1;0.9;;;;;;;;;;;;;
2024/03/12 14:21:39;;;;;;;1.3;1;;;;;;;;;;;;;
2024/03/12 14:24:04;;;;;;;0.9;0.9;;;;;;;;;;;;;
2024/03/12 14:26:30;;;;;;;1;0.9;;;;;;;;;;;;;
2024/03/12 14:29:43;;;;;;;0.9;0.9;;;;;;;;;;;;;
2024/03/12 14:31:22;;;;;;;1.5;1.4;;;;;;;;;;;;;
2024/03/12 14:33:47;;;;;;;1.4;1.3;;;;;;;;;;;;;
2024/03/12 14:36:10;;;;;;;1.4;1.3;;;;;;;;;;;;;
2024/03/12 14:38:35;;;;;;;2.4;1.4;;;;;;;;;;;;;
2024/03/12 14:41:02;;;;;;;1.4;1.3;;;;;;;;;;;;;
2024/03/12 14:43:26;;;;;;;1.8;1.1;;;;;;;;;;;;;
2024/03/12 14:45:51;;;;;;;1.6;1;;;;;;;;;;;;;
2024/03/12 14:48:16;;;;;;;1.1;1;;;;;;;;;;;;;
2024/03/12 14:50:42;;;;;;;1.2;1.1;;;;;;;;;;;;;
2024/03/12 14:53:07;;;;;;;1.1;1;;;;;;;;;;;;;
2024/03/12 14:55:31;;;;;;;1.6;1.1;;;;;;;;;;;;;
2024/03/12 14:57:56;;;;;;;1.4;1.1;;;;;;;;;;;;;
2024/03/12 15:00:21;;;;;;;1.2;1.1;;;;;;;;;;;;;
2024/03/12 15:02:46;;;;;;;1.5;1;;;;;;;;;;;;;
2024/03/12 15:05:12;;;;;;;2.1;1.4;;;;;;;;;;;;;
2024/03/12 15:07:37;;;;;;;1.2;1.1;;;;;;;;;;;;;
2024/03/12 15:10:02;;;;;;;1.7;1.6;;;;;;;;;;;;;
2024/03/12 15:12:26;;;;;;;1.6;1.5;;;;;;;;;;;;;
2024/03/12 15:14:52;;;;;;;1.4;1.2;;;;;;;;;;;;;
2024/03/12 15:17:17;;;;;;;2.2;1.4;;;;;;;;;;;;;
2024/03/12 15:19:43;;;;;;;2.2;1.6;;;;;;;;;;;;;
2024/03/12 15:22:06;;;;;;;1.5;1.4;;;;;;;;;;;;;
2024/03/12 15:24:32;;;;;;;1.9;1.6;;;;;;;;;;;;;
2024/03/12 15:26:58;;;;;;;3.5;2.4;;;;;;;;;;;;;
2024/03/12 15:29:23;;;;;;;3.9;2.5;;;;;;;;;;;;;
2024/03/12 15:31:49;;;;;;;5.1;3.1;;;;;;;;;;;;;
2024/03/12 15:34:13;;;;;;;4.1;3;;;;;;;;;;;;;
2024/03/12 15:36:40;;;;;;;3.3;2.2;;;;;;;;;;;;;
2024/03/12 15:39:03;;;;;;;3.2;2.4;;;;;;;;;;;;;
2024/03/12 15:41:28;;;;;;;2.4;1.9;;;;;;;;;;;;;
2024/03/12 15:43:54;;;;;;;3.4;1.9;;;;;;;;;;;;;
2024/03/12 15:46:19;;;;;;;2.3;2.1;;;;;;;;;;;;;
2024/03/12 15:48:43;;;;;;;1.7;1.4;;;;;;;;;;;;;
2024/03/12 15:51:08;;;;;;;10.6;7.2;;;;;;;;;;;;;
2024/03/12 15:53:34;;;;;;;5;4.2;;;;;;;;;;;;;
2024/03/12 15:55:58;;;;;;;3.3;2.6;;;;;;;;;;;;;
2024/03/12 15:58:25;;;;;;;2.6;2.4;;;;;;;;;;;;;
2024/03/12 16:00:50;;;;;;;9.9;6.8;;;;;;;;;;;;;
2024/03/12 16:03:15;;;;;;;6.7;4.9;;;;;;;;;;;;;
2024/03/12 16:05:41;;;;;;;17.3;11.9;;;;;;;;;;;;;
2024/03/12 16:08:06;;;;;;;5.8;3.8;;;;;;;;;;;;;
2024/03/12 16:10:31;;;;;;;2.7;1.9;;;;;;;;;;;;;
2024/03/12 16:14:35;;;;;;;1.6;1.5;;;;;;;;;;;;;
2024/03/12 16:17:03;;;;;;;2.5;2.3;;;;;;;;;;;;;
2024/03/12 16:19:29;;;;;;;4.5;2.9;;;;;;;;;;;;;
2024/03/12 16:21:51;;;;;;;5.5;4.9;;;;;;;;;;;;;
2024/03/12 16:24:15;;;;;;;6.7;6;;;;;;;;;;;;;
2024/03/12 16:26:40;;;;;;;5.3;4.3;;;;;;;;;;;;;
2024/03/12 16:29:05;;;;;;;3.1;2.5;;;;;;;;;;;;;
2024/03/12 16:31:30;;;;;;;6.9;5.7;;;;;;;;;;;;;
2024/03/12 16:33:55;;;;;;;4.1;3.2;;;;;;;;;;;;;
2024/03/12 16:36:21;;;;;;;2.5;2.3;;;;;;;;;;;;;
2024/03/12 16:38:47;;;;;;;3.9;2.5;;;;;;;;;;;;;
2024/03/12 16:41:11;;;;;;;4.7;3.2;;;;;;;;;;;;;
2024/03/12 16:43:36;;;;;;;4.6;2.9;;;;;;;;;;;;;
2024/03/12 16:46:01;;;;;;;4.6;3.6;;;;;;;;;;;;;
2024/03/12 16:48:26;;;;;;;6;3.7;;;;;;;;;;;;;
2024/03/12 16:50:53;;;;;;;5.8;3.7;;;;;;;;;;;;;
2024/03/12 16:53:16;;;;;;;4.4;2.5;;;;;;;;;;;;;
2024/03/12 16:55:41;;;;;;;2.5;2;;;;;;;;;;;;;
2024/03/12 16:58:06;;;;;;;2.2;1.9;;;;;;;;;;;;;
2024/03/12 17:00:34;;;;;;;3.2;2;;;;;;;;;;;;;
2024/03/12 17:02:57;;;;;;;6.9;5;;;;;;;;;;;;;
2024/03/12 17:05:22;;;;;;;7.4;6.1;;;;;;;;;;;;;
2024/03/12 17:07:47;;;;;;;11.3;7.3;;;;;;;;;;;;;
2024/03/12 17:10:13;;;;;;;4.9;4.1;;;;;;;;;;;;;
2024/03/12 17:12:39;;;;;;;5.7;3.5;;;;;;;;;;;;;
2024/03/12 17:15:03;;;;;;;7.5;5.8;;;;;;;;;;;;;
2024/03/12 17:17:28;;;;;;;9.5;7.8;;;;;;;;;;;;;
2024/03/12 17:19:53;;;;;;;8.5;6.6;;;;;;;;;;;;;
2024/03/12 17:22:19;;;;;;;7.7;5;;;;;;;;;;;;;
2024/03/12 17:24:43;;;;;;;3.1;2.4;;;;;;;;;;;;;
2024/03/12 17:27:10;;;;;;;1.9;1.6;;;;;;;;;;;;;
2024/03/12 17:29:33;;;;;;;2.5;2.1;;;;;;;;;;;;;
2024/03/12 17:31:59;;;;;;;2.8;2.5;;;;;;;;;;;;;
2024/03/12 17:34:23;;;;;;;10;6.2;;;;;;;;;;;;;
2024/03/12 17:36:48;;;;;;;5.3;3.8;;;;;;;;;;;;;
2024/03/12 17:39:14;;;;;;;6.2;3;;;;;;;;;;;;;
2024/03/12 17:41:39;;;;;;;3.8;3.3;;;;;;;;;;;;;
2024/03/12 17:44:04;;;;;;;5;3.6;;;;;;;;;;;;;
2024/03/12 17:46:29;;;;;;;5.5;4;;;;;;;;;;;;;
2024/03/12 17:48:54;;;;;;;4.2;3.2;;;;;;;;;;;;;
2024/03/12 17:51:19;;;;;;;4.3;3.2;;;;;;;;;;;;;
2024/03/12 17:53:44;;;;;;;4.9;3.9;;;;;;;;;;;;;
2024/03/12 17:56:11;;;;;;;7.9;5.1;;;;;;;;;;;;;
2024/03/12 17:58:37;;;;;;;6.3;4.7;;;;;;;;;;;;;
2024/03/12 18:01:00;;;;;;;5.1;4.1;;;;;;;;;;;;;
2024/03/12 18:03:24;;;;;;;5.4;4;;;;;;;;;;;;;
2024/03/12 18:05:50;;;;;;;5.3;3.5;;;;;;;;;;;;;
2024/03/12 18:08:15;;;;;;;4.3;3.7;;;;;;;;;;;;;
2024/03/12 18:10:40;;;;;;;5.5;3.8;;;;;;;;;;;;;
2024/03/12 18:13:05;;;;;;;5;3.8;;;;;;;;;;;;;
2024/03/12 18:15:30;;;;;;;4.4;3.6;;;;;;;;;;;;;
2024/03/12 18:17:55;;;;;;;4.8;4;;;;;;;;;;;;;
2024/03/12 18:20:23;;;;;;;3.2;2.4;;;;;;;;;;;;;
2024/03/12 18:22:45;;;;;;;3.5;2.3;;;;;;;;;;;;;
2024/03/12 18:25:11;;;;;;;5.7;4.2;;;;;;;;;;;;;
2024/03/12 18:27:35;;;;;;;11;6.4;;;;;;;;;;;;;
2024/03/12 18:30:01;;;;;;;30.1;15.5;;;;;;;;;;;;;
2024/03/12 18:32:26;;;;;;;24.2;13.5;;;;;;;;;;;;;
2024/03/12 18:34:51;;;;;;;9.6;6.7;;;;;;;;;;;;;
2024/03/12 18:37:16;;;;;;;5.8;4.2;;;;;;;;;;;;;
2024/03/12 18:39:41;;;;;;;3.2;2.2;;;;;;;;;;;;;
2024/03/12 18:42:06;;;;;;;2.2;2;;;;;;;;;;;;;
2024/03/12 18:44:31;;;;;;;2.1;1.9;;;;;;;;;;;;;
2024/03/12 18:46:57;;;;;;;3.1;2;;;;;;;;;;;;;
2024/03/12 18:49:21;;;;;;;3.8;3.1;;;;;;;;;;;;;
2024/03/12 18:51:46;;;;;;;3.1;2.3;;;;;;;;;;;;;
2024/03/12 18:54:12;;;;;;;3.9;2.7;;;;;;;;;;;;;
2024/03/12 18:56:37;;;;;;;3.4;2.6;;;;;;;;;;;;;
2024/03/12 18:59:03;;;;;;;2.9;2.5;;;;;;;;;;;;;
2024/03/12 19:01:28;;;;;;;4.1;2.7;;;;;;;;;;;;;
2024/03/12 19:03:54;;;;;;;3.5;2.7;;;;;;;;;;;;;
2024/03/12 19:06:18;;;;;;;3.1;2.2;;;;;;;;;;;;;
2024/03/12 19:08:42;;;;;;;2.9;2.5;;;;;;;;;;;;;
2024/03/12 19:11:10;;;;;;;6.4;5.2;;;;;;;;;;;;;
2024/03/12 19:13:33;;;;;;;9;5.6;;;;;;;;;;;;;
2024/03/12 19:15:58;;;;;;;8.6;4.9;;;;;;;;;;;;;
2024/03/12 19:18:24;;;;;;;5.6;3.7;;;;;;;;;;;;;
2024/03/12 19:20:49;;;;;;;17.5;11.3;;;;;;;;;;;;;
2024/03/12 19:23:13;;;;;;;14;9.3;;;;;;;;;;;;;
2024/03/12 19:25:38;;;;;;;18.1;12.9;;;;;;;;;;;;;
2024/03/12 19:28:04;;;;;;;4.6;3.8;;;;;;;;;;;;;
2024/03/12 19:30:29;;;;;;;3;2.3;;;;;;;;;;;;;
2024/03/12 19:32:54;;;;;;;3.1;2.5;;;;;;;;;;;;;
2024/03/12 19:35:19;;;;;;;3.6;2.4;;;;;;;;;;;;;
2024/03/12 19:37:45;;;;;;;2.3;2.1;;;;;;;;;;;;;
2024/03/12 19:40:11;;;;;;;3.1;2.4;;;;;;;;;;;;;
2024/03/12 19:42:34;;;;;;;2.8;2.3;;;;;;;;;;;;;
2024/03/12 19:44:59;;;;;;;2.5;2.3;;;;;;;;;;;;;
2024/03/12 19:47:26;;;;;;;3;2.5;;;;;;;;;;;;;
2024/03/12 19:49:50;;;;;;;6.2;4;;;;;;;;;;;;;
2024/03/12 19:52:17;;;;;;;9.3;6.4;;;;;;;;;;;;;
2024/03/12 19:54:40;;;;;;;15.5;11.6;;;;;;;;;;;;;
2024/03/12 19:57:05;;;;;;;10.5;8.1;;;;;;;;;;;;;
2024/03/12 19:59:30;;;;;;;9.1;6.9;;;;;;;;;;;;;
2024/03/12 20:01:56;;;;;;;6.5;5.1;;;;;;;;;;;;;
2024/03/12 20:04:21;;;;;;;4.8;3.7;;;;;;;;;;;;;
2024/03/12 20:06:46;;;;;;;3.4;2.8;;;;;;;;;;;;;
2024/03/12 20:09:22;;;;;;;3.4;2.7;;;;;;;;;;;;;
2024/03/12 20:11:38;;;;;;;2.8;2.5;;;;;;;;;;;;;
2024/03/12 20:14:01;;;;;;;16.9;12.7;;;;;;;;;;;;;
2024/03/12 20:16:28;;;;;;;6.9;6.1;;;;;;;;;;;;;
2024/03/12 20:18:51;;;;;;;6.1;4.2;;;;;;;;;;;;;
2024/03/12 20:21:17;;;;;;;4.8;4;;;;;;;;;;;;;
2024/03/12 20:23:42;;;;;;;15.9;14.3;;;;;;;;;;;;;
2024/03/12 20:26:07;;;;;;;12.4;9.9;;;;;;;;;;;;;
2024/03/12 20:28:32;;;;;;;8.3;6.1;;;;;;;;;;;;;
2024/03/12 20:30:58;;;;;;;6.4;4.5;;;;;;;;;;;;;
2024/03/12 20:33:24;;;;;;;5.5;4.5;;;;;;;;;;;;;
2024/03/12 20:35:47;;;;;;;4.4;3.8;;;;;;;;;;;;;
2024/03/12 20:38:14;;;;;;;7.4;6.7;;;;;;;;;;;;;